createdAt,value
2023-05-15T00:01:45.756Z,87.10
2023-05-15T00:04:17.669Z,86.92
2023-05-15T00:06:49.216Z,86.75
2023-05-15T00:09:21.105Z,86.76
2023-05-15T00:11:52.761Z,87.26
2023-05-15T00:14:24.233Z,86.91
2023-05-15T00:16:56.069Z,87.69
2023-05-15T00:19:27.582Z,89.35
2023-05-15T00:21:59.051Z,90.12
2023-05-15T00:24:30.514Z,89.79
2023-05-15T00:27:02.259Z,88.73
2023-05-15T00:29:33.724Z,89.26
2023-05-15T00:32:05.506Z,91.34
2023-05-15T00:34:36.988Z,90.62
2023-05-15T00:37:08.891Z,90.48
2023-05-15T00:39:40.370Z,91.93
2023-05-15T00:42:11.821Z,92.48
2023-05-15T00:44:43.286Z,94.57
2023-05-15T00:47:14.830Z,95.40
2023-05-15T00:49:46.653Z,97.17
2023-05-15T00:52:18.113Z,96.25
2023-05-15T00:54:49.896Z,95.98
2023-05-15T00:57:21.356Z,96.48
2023-05-15T00:59:53.387Z,96.60
2023-05-15T01:02:24.968Z,96.61
2023-05-15T01:04:56.873Z,97.47
2023-05-15T01:07:28.812Z,98.45
2023-05-15T01:10:00.626Z,99.25
2023-05-15T01:12:32.356Z,99.09
2023-05-15T01:15:03.836Z,100.00
2023-05-15T01:17:35.323Z,100.00
2023-05-15T01:20:06.878Z,100.00
2023-05-15T01:22:38.446Z,100.00
2023-05-15T01:25:09.892Z,99.82
2023-05-15T01:27:41.339Z,99.84
2023-05-15T01:30:12.861Z,100.00
2023-05-15T01:32:44.653Z,100.00
2023-05-15T01:35:16.130Z,100.00
2023-05-15T01:37:47.988Z,100.00
2023-05-15T01:40:19.821Z,100.00
2023-05-15T01:42:51.303Z,99.89
2023-05-15T01:45:23.076Z,100.00
2023-05-15T01:47:54.672Z,100.00
2023-05-15T01:50:26.536Z,100.00
2023-05-15T01:52:57.989Z,100.00
2023-05-15T01:55:29.763Z,100.00
2023-05-15T01:58:01.223Z,100.00
2023-05-15T02:00:33.174Z,100.00
2023-05-15T02:03:04.778Z,100.00
2023-05-15T02:05:36.435Z,100.00
2023-05-15T02:08:08.199Z,100.00
2023-05-15T02:10:39.681Z,100.00
2023-05-15T02:13:11.501Z,100.00
2023-05-15T02:15:42.956Z,100.00
2023-05-15T02:18:14.750Z,100.00
2023-05-15T02:20:46.176Z,100.00
2023-05-15T02:23:17.830Z,100.00
2023-05-15T02:25:49.308Z,100.00
2023-05-15T02:28:20.963Z,100.00
2023-05-15T02:30:52.432Z,100.00
2023-05-15T02:33:24.313Z,100.00
2023-05-15T02:35:55.764Z,100.00
2023-05-15T02:38:27.540Z,100.00
2023-05-15T02:40:59.017Z,100.00
2023-05-15T02:43:30.688Z,100.00
2023-05-15T02:46:02.359Z,100.00
2023-05-15T02:48:33.876Z,100.00
2023-05-15T02:51:05.677Z,100.00
2023-05-15T02:53:37.126Z,100.00
2023-05-15T02:56:08.882Z,100.00
2023-05-15T02:58:40.329Z,100.00
2023-05-15T03:01:12.150Z,100.00
2023-05-15T03:03:43.661Z,100.00
2023-05-15T03:06:15.292Z,100.00
2023-05-15T03:08:46.925Z,100.00
2023-05-15T03:11:18.591Z,100.00
2023-05-15T03:13:50.404Z,100.00
2023-05-15T03:16:21.901Z,100.00
2023-05-15T03:18:53.689Z,100.00
2023-05-15T03:21:25.171Z,100.00
2023-05-15T03:23:56.969Z,100.00
2023-05-15T03:26:28.425Z,100.00
2023-05-15T03:29:00.213Z,100.00
2023-05-15T03:31:31.684Z,100.00
2023-05-15T03:34:03.465Z,100.00
2023-05-15T03:36:34.939Z,100.00
2023-05-15T03:39:06.715Z,100.00
2023-05-15T03:41:38.203Z,100.00
2023-05-15T03:44:09.656Z,100.00
2023-05-15T03:46:41.517Z,100.00
2023-05-15T03:49:13.003Z,100.00
2023-05-15T03:51:44.753Z,100.00
2023-05-15T03:54:16.259Z,100.00
2023-05-15T03:56:48.031Z,100.00
2023-05-15T03:59:19.540Z,100.00
2023-05-15T04:02:03.665Z,100.00
2023-05-15T04:04:36.628Z,100.00
2023-05-15T04:07:08.390Z,100.00
2023-05-15T04:09:39.843Z,100.00
2023-05-15T04:12:11.567Z,100.00
2023-05-15T04:14:43.014Z,100.00
2023-05-15T04:17:14.918Z,100.00
2023-05-15T04:19:46.351Z,100.00
2023-05-15T04:22:18.184Z,100.00
2023-05-15T04:24:49.655Z,100.00
2023-05-15T04:27:21.439Z,100.00
2023-05-15T04:29:52.878Z,100.00
2023-05-15T04:32:24.616Z,100.00
2023-05-15T04:34:56.100Z,99.14
2023-05-15T04:37:28.060Z,98.53
2023-05-15T04:39:59.500Z,95.55
2023-05-15T04:42:31.404Z,94.93
2023-05-15T04:45:02.870Z,94.58
2023-05-15T04:47:34.502Z,93.03
2023-05-15T04:50:05.998Z,93.20
2023-05-15T04:52:37.727Z,93.45
2023-05-15T04:55:09.181Z,92.33
2023-05-15T04:57:40.926Z,92.74
2023-05-15T05:00:13.453Z,93.50
2023-05-15T05:02:45.209Z,93.58
2023-05-15T05:05:16.716Z,95.18
2023-05-15T05:07:48.547Z,94.46
2023-05-15T05:10:20.026Z,94.25
2023-05-15T05:12:51.813Z,95.26
2023-05-15T05:15:23.355Z,94.96
2023-05-15T05:17:55.592Z,93.90
2023-05-15T05:20:27.110Z,95.03
2023-05-15T05:22:58.916Z,95.00
2023-05-15T05:25:30.393Z,95.80
2023-05-15T05:28:02.065Z,94.19
2023-05-15T05:30:33.545Z,91.50
2023-05-15T05:33:05.556Z,87.95
2023-05-15T05:35:37.091Z,86.58
2023-05-15T05:38:08.950Z,84.55
2023-05-15T05:40:40.410Z,84.19
2023-05-15T05:43:12.188Z,80.83
2023-05-15T05:45:43.633Z,78.11
2023-05-15T05:48:15.390Z,75.86
2023-05-15T05:50:46.835Z,74.06
2023-05-15T05:53:18.629Z,69.12
2023-05-15T05:55:50.105Z,69.55
2023-05-15T05:58:25.855Z,70.55
2023-05-15T06:00:57.817Z,69.63
2023-05-15T06:03:29.592Z,70.98
2023-05-15T06:06:01.122Z,71.23
2023-05-15T06:08:32.837Z,72.50
2023-05-15T06:11:04.281Z,73.04
2023-05-15T06:13:35.756Z,73.77
2023-05-15T06:16:07.206Z,72.39
2023-05-15T06:18:39.224Z,71.18
2023-05-15T06:21:10.712Z,70.51
2023-05-15T06:23:42.603Z,71.66
2023-05-15T06:26:14.087Z,72.30
2023-05-15T06:28:45.857Z,71.35
2023-05-15T06:31:17.411Z,70.48
2023-05-15T06:33:49.415Z,68.17
2023-05-15T06:36:20.866Z,67.80
2023-05-15T06:38:52.648Z,68.24
2023-05-15T06:41:24.129Z,70.99
2023-05-15T06:43:55.925Z,67.30
2023-05-15T06:46:27.883Z,65.82
2023-05-15T06:48:59.739Z,67.47
2023-05-15T06:51:31.206Z,64.71
2023-05-15T06:54:03.006Z,63.80
2023-05-15T06:56:34.519Z,61.70
2023-05-15T06:59:06.152Z,60.72
2023-05-15T07:01:37.681Z,59.64
2023-05-15T07:04:09.556Z,58.08
2023-05-15T07:06:41.008Z,57.05
2023-05-15T07:09:12.743Z,55.39
2023-05-15T07:11:44.218Z,54.88
2023-05-15T07:14:19.187Z,54.45
2023-05-15T07:16:51.048Z,51.09
2023-05-15T07:19:22.903Z,50.04
2023-05-15T07:21:54.837Z,49.98
2023-05-15T07:24:26.289Z,48.85
2023-05-15T07:26:59.261Z,46.49
2023-05-15T07:29:30.917Z,43.00
2023-05-15T07:32:02.825Z,42.46
2023-05-15T07:34:34.339Z,43.79
2023-05-15T07:37:06.261Z,43.63
2023-05-15T07:39:37.872Z,42.69
2023-05-15T07:42:09.900Z,43.71
2023-05-15T07:44:43.992Z,42.03
2023-05-15T07:47:16.858Z,42.69
2023-05-15T07:49:48.628Z,44.11
2023-05-15T07:52:20.132Z,44.38
2023-05-15T07:54:51.606Z,42.89
2023-05-15T07:57:23.047Z,44.16
2023-05-15T07:59:54.964Z,45.04
2023-05-15T08:02:26.485Z,45.90
2023-05-15T08:04:58.361Z,44.68
2023-05-15T08:07:29.822Z,45.65
2023-05-15T08:10:01.649Z,45.64
2023-05-15T08:12:33.142Z,46.26
2023-05-15T08:15:04.996Z,46.39
2023-05-15T08:17:36.480Z,46.12
2023-05-15T08:20:07.959Z,44.45
2023-05-15T08:22:39.427Z,46.34
2023-05-15T08:25:10.878Z,45.53
2023-05-15T08:27:42.757Z,45.67
2023-05-15T08:30:14.212Z,44.76
2023-05-15T08:32:45.805Z,45.94
2023-05-15T08:35:17.323Z,44.39
2023-05-15T08:37:49.131Z,43.00
2023-05-15T08:40:25.621Z,43.05
2023-05-15T08:43:06.517Z,42.54
2023-05-15T08:45:38.068Z,43.96
2023-05-15T08:48:09.600Z,43.27
2023-05-15T08:50:41.096Z,41.66
2023-05-15T08:53:12.636Z,41.64
2023-05-15T08:55:44.437Z,41.39
2023-05-15T08:58:15.918Z,41.48
2023-05-15T09:00:47.415Z,42.59
2023-05-15T09:03:18.969Z,42.70
2023-05-15T09:05:50.726Z,43.06
2023-05-15T09:08:23.338Z,43.53
2023-05-15T09:10:55.368Z,44.68
2023-05-15T09:13:27.220Z,44.43
2023-05-15T09:15:58.684Z,44.57
2023-05-15T09:18:30.362Z,44.88
2023-05-15T09:21:01.875Z,45.51
2023-05-15T09:23:33.456Z,45.35
2023-05-15T09:26:05.008Z,47.28
2023-05-15T09:28:36.505Z,45.43
2023-05-15T09:31:08.025Z,46.31
2023-05-15T09:33:39.492Z,46.10
2023-05-15T09:36:10.954Z,45.54
2023-05-15T09:38:42.763Z,45.54
2023-05-15T09:41:14.742Z,43.82
2023-05-15T09:43:47.976Z,44.10
2023-05-15T09:46:19.927Z,44.58
2023-05-15T09:48:51.424Z,44.30
2023-05-15T09:51:23.099Z,46.00
2023-05-15T09:53:54.579Z,45.68
2023-05-15T09:56:26.214Z,45.26
2023-05-15T09:58:57.838Z,45.32
2023-05-15T10:01:29.781Z,43.61
2023-05-15T10:04:01.266Z,42.57
2023-05-15T10:06:33.086Z,41.11
2023-05-15T10:09:04.853Z,41.29
2023-05-15T10:11:36.322Z,42.13
2023-05-15T10:14:08.080Z,39.17
2023-05-15T10:16:39.641Z,39.64
2023-05-15T10:19:11.596Z,39.30
2023-05-15T10:21:43.075Z,37.51
2023-05-15T10:24:14.847Z,38.43
2023-05-15T10:26:46.305Z,37.70
2023-05-15T10:29:17.770Z,36.35
2023-05-15T10:31:49.321Z,38.48
2023-05-15T10:34:20.822Z,35.90
2023-05-15T10:36:52.288Z,35.88
2023-05-15T10:39:24.048Z,35.91
2023-05-15T10:41:55.518Z,35.86
2023-05-15T10:44:26.980Z,35.91
2023-05-15T10:46:58.898Z,35.32
2023-05-15T10:49:30.450Z,35.97
2023-05-15T10:52:02.478Z,37.13
2023-05-15T10:54:33.924Z,38.41
2023-05-15T10:57:05.813Z,40.14
2023-05-15T10:59:37.548Z,40.78
2023-05-15T11:02:09.342Z,41.38
2023-05-15T11:04:40.879Z,40.66
2023-05-15T11:07:12.834Z,40.36
2023-05-15T11:09:44.776Z,41.47
2023-05-15T11:12:16.265Z,40.83
2023-05-15T11:14:48.196Z,41.31
2023-05-15T11:17:19.655Z,41.30
2023-05-15T11:19:51.632Z,41.70
2023-05-15T11:22:23.173Z,42.91
2023-05-15T11:24:54.739Z,41.30
2023-05-15T11:27:26.178Z,41.17
2023-05-15T11:29:57.739Z,40.98
2023-05-15T11:32:29.235Z,40.68
2023-05-15T11:35:00.785Z,39.09
2023-05-15T11:37:32.747Z,39.28
2023-05-15T11:40:04.520Z,38.94
2023-05-15T11:42:36.003Z,36.16
2023-05-15T11:45:07.468Z,36.48
2023-05-15T11:47:39.030Z,35.42
2023-05-15T11:50:10.501Z,36.01
2023-05-15T11:52:42.126Z,36.30
2023-05-15T11:55:13.806Z,35.07
2023-05-15T11:57:45.254Z,35.74
2023-05-15T12:00:16.905Z,35.64
2023-05-15T12:02:48.476Z,36.11
2023-05-15T12:05:20.332Z,35.60
2023-05-15T12:07:51.796Z,35.80
2023-05-15T12:10:23.681Z,34.28
2023-05-15T12:12:55.212Z,34.15
2023-05-15T12:15:27.111Z,32.61
2023-05-15T12:17:58.596Z,31.90
2023-05-15T12:20:30.404Z,30.47
2023-05-15T12:23:01.863Z,30.49
2023-05-15T12:25:33.311Z,31.57
2023-05-15T12:28:04.773Z,32.01
2023-05-15T12:30:36.217Z,32.57
2023-05-15T12:33:08.124Z,31.31
2023-05-15T12:35:39.614Z,30.75
2023-05-15T12:38:11.392Z,28.59
2023-05-15T12:40:42.837Z,30.13
2023-05-15T12:43:14.654Z,30.04
2023-05-15T12:45:46.170Z,30.89
2023-05-15T12:48:17.644Z,31.51
2023-05-15T12:50:49.112Z,32.03
2023-05-15T12:53:20.890Z,32.22
2023-05-15T12:55:52.691Z,31.62
2023-05-15T12:58:24.165Z,32.87
2023-05-15T13:00:56.420Z,32.19
2023-05-15T13:03:28.031Z,31.70
2023-05-15T13:05:59.977Z,31.06
2023-05-15T13:08:31.477Z,30.81
2023-05-15T13:11:03.308Z,29.12
2023-05-15T13:13:34.790Z,28.74
2023-05-15T13:16:08.282Z,27.51
2023-05-15T13:18:42.013Z,27.26
2023-05-15T13:21:13.904Z,26.11
2023-05-15T13:23:45.694Z,25.73
2023-05-15T13:26:17.166Z,24.43
2023-05-15T13:28:48.959Z,25.22
2023-05-15T13:31:20.457Z,25.61
2023-05-15T13:33:51.982Z,27.13
2023-05-15T13:36:23.451Z,28.28
2023-05-15T13:38:55.144Z,26.85
2023-05-15T13:41:26.591Z,25.63
2023-05-15T13:43:58.370Z,25.47
2023-05-15T13:46:30.177Z,24.71
2023-05-15T13:49:01.698Z,25.55
2023-05-15T13:51:33.714Z,25.50
2023-05-15T13:54:07.286Z,27.78
2023-05-15T13:56:38.783Z,29.13
2023-05-15T13:59:10.265Z,36.66
2023-05-15T14:01:41.895Z,39.50
2023-05-15T14:04:13.599Z,40.97
2023-05-15T14:06:45.172Z,41.95
2023-05-15T14:09:16.717Z,42.83
2023-05-15T14:11:48.630Z,43.83
2023-05-15T14:14:20.353Z,46.39
2023-05-15T14:16:52.230Z,46.97
2023-05-15T14:19:24.310Z,46.73
2023-05-15T14:21:55.838Z,47.39
2023-05-15T14:24:27.789Z,48.58
2023-05-15T14:26:59.240Z,49.92
2023-05-15T14:29:31.000Z,47.11
2023-05-15T14:32:02.460Z,44.12
2023-05-15T14:34:34.042Z,42.63
2023-05-15T14:37:05.527Z,40.94
2023-05-15T14:39:37.024Z,40.92
2023-05-15T14:42:08.640Z,39.10
2023-05-15T14:44:40.107Z,38.97
2023-05-15T14:47:11.848Z,41.11
2023-05-15T14:49:43.504Z,42.75
2023-05-15T14:52:15.150Z,43.36
2023-05-15T14:54:56.927Z,43.22
2023-05-15T14:57:38.036Z,43.37
2023-05-15T15:00:09.621Z,41.53
2023-05-15T15:02:41.278Z,38.65
2023-05-15T15:05:12.795Z,40.98
2023-05-15T15:07:44.789Z,42.60
2023-05-15T15:10:16.262Z,43.20
2023-05-15T15:12:47.915Z,42.22
2023-05-15T15:15:19.552Z,39.92
2023-05-15T15:17:51.041Z,39.76
2023-05-15T15:20:22.548Z,41.98
2023-05-15T15:22:54.024Z,42.92
2023-05-15T15:25:25.724Z,43.61
2023-05-15T15:27:57.189Z,44.35
2023-05-15T15:30:28.954Z,45.06
2023-05-15T15:33:00.471Z,43.96
2023-05-15T15:35:32.376Z,42.02
2023-05-15T15:38:03.854Z,42.07
2023-05-15T15:40:35.369Z,40.88
2023-05-15T15:43:06.838Z,41.02
2023-05-15T15:45:38.408Z,38.09
2023-05-15T15:48:10.337Z,38.79
2023-05-15T15:50:41.820Z,40.76
2023-05-15T15:53:13.270Z,42.16
2023-05-15T15:55:47.003Z,43.11
2023-05-15T15:58:18.985Z,45.29
2023-05-15T16:00:50.477Z,44.91
2023-05-15T16:03:22.274Z,43.31
2023-05-15T16:05:53.821Z,42.25
2023-05-15T16:08:25.661Z,43.51
2023-05-15T16:10:57.165Z,43.85
2023-05-15T16:13:29.009Z,44.21
2023-05-15T16:16:00.496Z,44.24
2023-05-15T16:18:35.029Z,44.95
2023-05-15T16:21:06.872Z,46.05
2023-05-15T16:23:38.322Z,48.13
2023-05-15T16:26:09.934Z,48.74
2023-05-15T16:28:41.423Z,49.78
2023-05-15T16:31:13.244Z,50.99
2023-05-15T16:33:44.762Z,51.60
2023-05-15T16:36:16.598Z,54.04
2023-05-15T16:38:48.047Z,53.44
2023-05-15T16:41:19.708Z,54.43
2023-05-15T16:43:51.538Z,55.00
2023-05-15T16:46:23.405Z,56.07
2023-05-15T16:48:55.219Z,56.64
2023-05-15T16:51:26.700Z,57.20
2023-05-15T16:53:58.634Z,57.11
2023-05-15T16:56:30.126Z,57.89
2023-05-15T16:59:01.894Z,57.67
2023-05-15T17:01:33.433Z,58.67
2023-05-15T17:04:05.336Z,59.93
2023-05-15T17:06:36.815Z,59.45
2023-05-15T17:09:08.605Z,58.97
2023-05-15T17:11:40.083Z,58.84
2023-05-15T17:14:11.591Z,59.17
2023-05-15T17:16:43.488Z,60.27
2023-05-15T17:19:15.076Z,61.69
2023-05-15T17:21:46.780Z,63.97
2023-05-15T17:24:18.240Z,66.56
2023-05-15T17:26:49.683Z,69.15
2023-05-15T17:29:21.145Z,71.40
2023-05-15T17:31:52.732Z,72.48
2023-05-15T17:34:24.240Z,73.37
2023-05-15T17:36:55.726Z,73.88
2023-05-15T17:39:27.189Z,74.46
2023-05-15T17:41:58.676Z,74.66
2023-05-15T17:44:30.497Z,74.74
2023-05-15T17:47:02.069Z,75.42
2023-05-15T17:49:33.579Z,75.72
2023-05-15T17:52:05.028Z,75.26
2023-05-15T17:54:36.517Z,75.85
2023-05-15T17:57:07.981Z,75.97
2023-05-15T17:59:39.452Z,76.14
2023-05-15T18:02:10.941Z,76.29
2023-05-15T18:04:42.797Z,75.85
2023-05-15T18:07:14.264Z,76.68
2023-05-15T18:09:46.020Z,76.67
2023-05-15T18:12:17.492Z,77.51
2023-05-15T18:14:49.385Z,77.81
2023-05-15T18:17:21.398Z,77.58
2023-05-15T18:19:52.880Z,78.23
2023-05-15T18:22:24.665Z,77.82
2023-05-15T18:24:56.125Z,77.91
2023-05-15T18:27:27.938Z,77.75
2023-05-15T18:29:59.454Z,77.11
2023-05-15T18:32:30.971Z,76.71
2023-05-15T18:35:02.482Z,77.26
2023-05-15T18:37:33.955Z,78.19
2023-05-15T18:40:05.428Z,78.17
2023-05-15T18:42:36.900Z,78.37
2023-05-15T18:45:08.712Z,79.47
2023-05-15T18:47:42.336Z,80.05
2023-05-15T18:50:14.009Z,80.83
2023-05-15T18:52:45.489Z,80.98
2023-05-15T18:55:16.984Z,81.17
2023-05-15T18:57:48.505Z,81.45
2023-05-15T19:00:33.998Z,81.81
2023-05-15T19:03:09.913Z,82.08
2023-05-15T19:05:41.553Z,83.51
2023-05-15T19:08:13.020Z,84.08
2023-05-15T19:10:44.461Z,84.82
2023-05-15T19:13:16.198Z,86.44
2023-05-15T19:15:47.976Z,88.38
2023-05-15T19:18:19.820Z,88.91
2023-05-15T19:20:51.377Z,90.57
2023-05-15T19:23:22.864Z,92.25
2023-05-15T19:25:54.307Z,93.55
2023-05-15T19:28:26.126Z,94.26
2023-05-15T19:30:57.602Z,94.65
2023-05-15T19:33:29.417Z,94.32
2023-05-15T19:36:00.906Z,94.21
2023-05-15T19:38:32.735Z,94.88
2023-05-15T19:41:04.770Z,95.38
2023-05-15T19:43:36.225Z,95.65
2023-05-15T19:46:07.975Z,96.03
2023-05-15T19:48:39.456Z,97.39
2023-05-15T19:51:11.321Z,97.32
2023-05-15T19:53:42.802Z,97.24
2023-05-15T19:56:14.300Z,97.09
2023-05-15T19:58:45.789Z,97.29
2023-05-15T20:01:17.657Z,97.49
2023-05-15T20:03:49.292Z,97.80
2023-05-15T20:06:21.262Z,97.87
2023-05-15T20:08:52.747Z,98.44
2023-05-15T20:11:24.529Z,98.30
2023-05-15T20:13:56.341Z,98.40
2023-05-15T20:16:27.856Z,98.83
2023-05-15T20:18:59.671Z,99.48
2023-05-15T20:21:31.110Z,100.00
2023-05-15T20:24:02.883Z,100.00
2023-05-15T20:26:34.322Z,100.00
2023-05-15T20:29:05.979Z,100.00
2023-05-15T20:31:37.474Z,100.00
2023-05-15T20:34:09.285Z,100.00
2023-05-15T20:36:40.733Z,100.00
2023-05-15T20:39:12.224Z,100.00
2023-05-15T20:41:44.120Z,100.00
2023-05-15T20:44:15.877Z,100.00
2023-05-15T20:46:47.723Z,100.00
2023-05-15T20:49:19.157Z,100.00
2023-05-15T20:51:51.079Z,100.00
2023-05-15T20:54:22.543Z,100.00
2023-05-15T20:56:54.312Z,100.00
2023-05-15T20:59:25.755Z,100.00
2023-05-15T21:01:57.541Z,100.00
2023-05-15T21:04:29.001Z,100.00
2023-05-15T21:07:00.792Z,100.00
2023-05-15T21:09:32.226Z,100.00
2023-05-15T21:12:03.923Z,100.00
2023-05-15T21:14:35.464Z,100.00
2023-05-15T21:17:06.972Z,100.00
2023-05-15T21:19:38.471Z,100.00
2023-05-15T21:22:09.928Z,100.00
2023-05-15T21:24:41.381Z,100.00
2023-05-15T21:27:12.826Z,100.00
2023-05-15T21:29:44.607Z,100.00
2023-05-15T21:32:16.057Z,100.00
2023-05-15T21:34:47.904Z,100.00
2023-05-15T21:37:19.372Z,100.00
2023-05-15T21:39:51.195Z,100.00
2023-05-15T21:42:23.039Z,100.00
2023-05-15T21:44:54.894Z,100.00
2023-05-15T21:47:26.766Z,100.00
2023-05-15T21:49:58.243Z,100.00
2023-05-15T21:52:29.698Z,100.00
2023-05-15T21:55:01.140Z,100.00
2023-05-15T21:57:32.749Z,100.00
2023-05-15T22:00:04.186Z,100.00
2023-05-15T22:02:35.780Z,100.00
2023-05-15T22:05:07.332Z,100.00
2023-05-15T22:07:38.799Z,100.00
2023-05-15T22:10:10.229Z,100.00
2023-05-15T22:12:41.692Z,100.00
2023-05-15T22:15:13.454Z,100.00
2023-05-15T22:17:45.443Z,100.00
2023-05-15T22:20:16.931Z,100.00
2023-05-15T22:22:48.406Z,100.00
2023-05-15T22:25:19.861Z,100.00
2023-05-15T22:27:51.325Z,100.00
2023-05-15T22:30:23.046Z,100.00
2023-05-15T22:32:54.568Z,100.00
2023-05-15T22:35:26.180Z,99.72
2023-05-15T22:37:57.785Z,98.85
2023-05-15T22:40:29.637Z,98.21
2023-05-15T22:43:01.346Z,98.23
2023-05-15T22:45:32.829Z,98.38
2023-05-15T22:48:04.684Z,98.66
2023-05-15T22:50:36.209Z,99.29
2023-05-15T22:53:07.962Z,100.00
2023-05-15T22:55:39.419Z,99.96
2023-05-15T22:58:11.264Z,100.00
2023-05-15T23:00:42.714Z,100.00
2023-05-15T23:03:14.621Z,100.00
2023-05-15T23:05:46.134Z,100.00
2023-05-15T23:08:18.202Z,100.00
2023-05-15T23:10:49.678Z,100.00
2023-05-15T23:13:21.514Z,100.00
2023-05-15T23:15:53.372Z,100.00
2023-05-15T23:18:24.815Z,100.00
2023-05-15T23:20:56.567Z,100.00
2023-05-15T23:23:28.028Z,100.00
2023-05-15T23:25:59.932Z,100.00
2023-05-15T23:28:31.379Z,100.00
2023-05-15T23:31:03.148Z,100.00
2023-05-15T23:33:34.645Z,100.00
2023-05-15T23:36:06.260Z,100.00
2023-05-15T23:38:37.728Z,100.00
2023-05-15T23:41:09.535Z,100.00
2023-05-15T23:43:41.000Z,100.00
2023-05-15T23:46:12.509Z,100.00
2023-05-15T23:48:44.400Z,100.00
2023-05-15T23:51:15.840Z,100.00
2023-05-15T23:53:47.303Z,100.00
2023-05-15T23:56:18.772Z,100.00
2023-05-15T23:58:50.504Z,100.00
